sensor_id;sensor_type;location;lat;lon;timestamp;pressure;altitude;pressure_sealevel;temperature;humidity
70434;BME280;57876;47.792;12.960;2023-07-31T00:00:25;96975.06;;;18.79;63.57
70434;BME280;57876;47.792;12.960;2023-07-31T00:02:49;96973.13;;;18.79;63.34
70434;BME280;57876;47.792;12.960;2023-07-31T00:05:14;96973.13;;;18.79;63.66
70434;BME280;57876;47.792;12.960;2023-07-31T00:07:38;96971.84;;;18.77;63.62
70434;BME280;57876;47.792;12.960;2023-07-31T00:10:03;96974.59;;;18.77;63.33
70434;BME280;57876;47.792;12.960;2023-07-31T00:12:27;96975.06;;;18.79;63.63
70434;BME280;57876;47.792;12.960;2023-07-31T00:14:52;96977.81;;;18.79;63.50
70434;BME280;57876;47.792;12.960;2023-07-31T00:17:17;96974.94;;;18.75;63.58
70434;BME280;57876;47.792;12.960;2023-07-31T00:19:41;96980.56;;;18.79;63.40
70434;BME280;57876;47.792;12.960;2023-07-31T00:22:05;96987.50;;;18.76;63.45
70434;BME280;57876;47.792;12.960;2023-07-31T00:24:30;96984.09;;;18.79;63.51
70434;BME280;57876;47.792;12.960;2023-07-31T00:26:54;96971.53;;;18.78;63.60
70434;BME280;57876;47.792;12.960;2023-07-31T00:29:18;96968.31;;;18.76;63.63
70434;BME280;57876;47.792;12.960;2023-07-31T00:31:43;96968.00;;;18.78;63.22
70434;BME280;57876;47.792;12.960;2023-07-31T00:34:07;96965.59;;;18.76;63.68
70434;BME280;57876;47.792;12.960;2023-07-31T00:36:32;96969.91;;;18.77;63.49
70434;BME280;57876;47.792;12.960;2023-07-31T00:38:56;96976.53;;;18.76;63.51
70434;BME280;57876;47.792;12.960;2023-07-31T00:41:20;96983.63;;;18.77;63.43
70434;BME280;57876;47.792;12.960;2023-07-31T00:43:45;96978.97;;;18.78;63.52
70434;BME280;57876;47.792;12.960;2023-07-31T00:46:09;96977.03;;;18.78;63.54
70434;BME280;57876;47.792;12.960;2023-07-31T00:48:34;96980.88;;;18.77;63.52
70434;BME280;57876;47.792;12.960;2023-07-31T00:51:00;96974.59;;;18.77;63.60
70434;BME280;57876;47.792;12.960;2023-07-31T00:53:25;96965.91;;;18.75;63.72
70434;BME280;57876;47.792;12.960;2023-07-31T00:55:49;96967.81;;;18.74;63.51
70434;BME280;57876;47.792;12.960;2023-07-31T00:58:14;96967.81;;;18.74;63.59
70434;BME280;57876;47.792;12.960;2023-07-31T01:00:38;96977.81;;;18.79;63.65
70434;BME280;57876;47.792;12.960;2023-07-31T01:03:03;96963.47;;;18.73;63.80
70434;BME280;57876;47.792;12.960;2023-07-31T01:06:05;96967.19;;;18.77;63.62
70434;BME280;57876;47.792;12.960;2023-07-31T01:08:58;96961.69;;;18.77;63.74
70434;BME280;57876;47.792;12.960;2023-07-31T01:11:43;96954.94;;;18.75;63.62
70434;BME280;57876;47.792;12.960;2023-07-31T01:14:10;96957.38;;;18.76;63.66
70434;BME280;57876;47.792;12.960;2023-07-31T01:16:35;96955.41;;;18.77;63.75
70434;BME280;57876;47.792;12.960;2023-07-31T01:18:59;96959.31;;;18.76;63.63
70434;BME280;57876;47.792;12.960;2023-07-31T01:27:12;96941.25;;;18.75;63.56
70434;BME280;57876;47.792;12.960;2023-07-31T01:32:07;96938.50;;;18.75;63.69
70434;BME280;57876;47.792;12.960;2023-07-31T01:34:33;96932.19;;;18.74;63.54
70434;BME280;57876;47.792;12.960;2023-07-31T01:36:58;96935.44;;;18.76;63.94
70434;BME280;57876;47.792;12.960;2023-07-31T01:39:23;96928.38;;;18.75;63.67
70434;BME280;57876;47.792;12.960;2023-07-31T01:41:47;96921.22;;;18.74;63.78
70434;BME280;57876;47.792;12.960;2023-07-31T01:44:12;96918.84;;;18.73;63.55
70434;BME280;57876;47.792;12.960;2023-07-31T01:46:36;96915.28;;;18.72;63.68
70434;BME280;57876;47.792;12.960;2023-07-31T01:49:00;96911.94;;;18.75;63.62
70434;BME280;57876;47.792;12.960;2023-07-31T01:51:25;96912.22;;;18.74;63.47
70434;BME280;57876;47.792;12.960;2023-07-31T01:53:51;96904.78;;;18.74;63.71
70434;BME280;57876;47.792;12.960;2023-07-31T01:56:16;96909.47;;;18.74;63.56
70434;BME280;57876;47.792;12.960;2023-07-31T01:58:40;96904.78;;;18.74;63.79
70434;BME280;57876;47.792;12.960;2023-07-31T02:01:04;96909.19;;;18.75;63.53
70434;BME280;57876;47.792;12.960;2023-07-31T02:03:29;96905.63;;;18.75;63.57
70434;BME280;57876;47.792;12.960;2023-07-31T02:05:54;96911.94;;;18.75;63.34
70434;BME280;57876;47.792;12.960;2023-07-31T02:08:18;96909.47;;;18.74;63.47
70434;BME280;57876;47.792;12.960;2023-07-31T02:10:43;96907.88;;;18.73;63.91
70434;BME280;57876;47.792;12.960;2023-07-31T02:13:07;96900.78;;;18.71;63.53
70434;BME280;57876;47.792;12.960;2023-07-31T02:15:32;96902.06;;;18.74;63.59
70434;BME280;57876;47.792;12.960;2023-07-31T02:17:57;96901.94;;;18.70;63.60
70434;BME280;57876;47.792;12.960;2023-07-31T02:20:21;96895.31;;;18.71;63.48
70434;BME280;57876;47.792;12.960;2023-07-31T02:22:45;96899.66;;;18.73;63.41
70434;BME280;57876;47.792;12.960;2023-07-31T02:25:10;96889.81;;;18.71;63.54
70434;BME280;57876;47.792;12.960;2023-07-31T02:27:34;96885.97;;;18.73;63.65
70434;BME280;57876;47.792;12.960;2023-07-31T02:29:58;96882.06;;;18.74;63.73
70434;BME280;57876;47.792;12.960;2023-07-31T02:32:23;96879.66;;;18.72;63.59
70434;BME280;57876;47.792;12.960;2023-07-31T02:34:48;96878.88;;;18.71;63.60
70434;BME280;57876;47.792;12.960;2023-07-31T02:37:12;96885.63;;;18.74;63.53
70434;BME280;57876;47.792;12.960;2023-07-31T02:39:37;96887.88;;;18.72;63.58
70434;BME280;57876;47.792;12.960;2023-07-31T02:42:01;96882.41;;;18.72;63.83
70434;BME280;57876;47.792;12.960;2023-07-31T02:44:26;96870.66;;;18.71;63.51
70434;BME280;57876;47.792;12.960;2023-07-31T02:46:50;96876.91;;;18.72;63.79
70434;BME280;57876;47.792;12.960;2023-07-31T02:49:15;96881.59;;;18.71;63.38
70434;BME280;57876;47.792;12.960;2023-07-31T02:51:39;96889.81;;;18.71;63.51
70434;BME280;57876;47.792;12.960;2023-07-31T02:54:03;96899.31;;;18.74;63.89
70434;BME280;57876;47.792;12.960;2023-07-31T02:56:28;96896.94;;;18.73;63.66
70434;BME280;57876;47.792;12.960;2023-07-31T02:58:52;96896.94;;;18.73;63.64
70434;BME280;57876;47.792;12.960;2023-07-31T03:01:17;96896.94;;;18.73;63.47
70434;BME280;57876;47.792;12.960;2023-07-31T03:03:41;96903.19;;;18.73;63.61
70434;BME280;57876;47.792;12.960;2023-07-31T03:06:06;96888.22;;;18.70;63.82
70434;BME280;57876;47.792;12.960;2023-07-31T03:08:30;96889.03;;;18.71;63.51
70434;BME280;57876;47.792;12.960;2023-07-31T03:10:56;96883.88;;;18.69;63.56
70434;BME280;57876;47.792;12.960;2023-07-31T03:13:21;96882.75;;;18.70;63.68
70434;BME280;57876;47.792;12.960;2023-07-31T03:15:45;96880.81;;;18.71;63.74
70434;BME280;57876;47.792;12.960;2023-07-31T03:18:10;96885.16;;;18.72;63.47
70434;BME280;57876;47.792;12.960;2023-07-31T03:20:34;96886.75;;;18.73;63.31
70434;BME280;57876;47.792;12.960;2023-07-31T03:22:59;96874.53;;;18.70;63.73
70434;BME280;57876;47.792;12.960;2023-07-31T03:25:23;96882.75;;;18.70;63.56
70434;BME280;57876;47.792;12.960;2023-07-31T03:27:47;96869.06;;;18.70;63.46
70434;BME280;57876;47.792;12.960;2023-07-31T03:30:12;96873.38;;;18.71;63.60
70434;BME280;57876;47.792;12.960;2023-07-31T03:32:36;96875.34;;;18.71;63.55
70434;BME280;57876;47.792;12.960;2023-07-31T03:35:00;96872.91;;;18.69;63.51
70434;BME280;57876;47.792;12.960;2023-07-31T03:51:07;96867.78;;;18.68;63.61
70434;BME280;57876;47.792;12.960;2023-07-31T03:53:31;96866.19;;;18.67;63.55
70434;BME280;57876;47.792;12.960;2023-07-31T03:55:56;96871.00;;;18.70;63.29
70434;BME280;57876;47.792;12.960;2023-07-31T03:58:20;96874.84;;;18.69;63.70
70434;BME280;57876;47.792;12.960;2023-07-31T04:00:45;96871.00;;;18.70;63.73
70434;BME280;57876;47.792;12.960;2023-07-31T04:03:09;96872.13;;;18.69;63.50
70434;BME280;57876;47.792;12.960;2023-07-31T04:05:38;96864.69;;;18.69;63.64
70434;BME280;57876;47.792;12.960;2023-07-31T04:08:03;96865.84;;;18.68;63.76
70434;BME280;57876;47.792;12.960;2023-07-31T04:10:27;96871.78;;;18.70;63.75
70434;BME280;57876;47.792;12.960;2023-07-31T04:12:51;96874.84;;;18.69;63.57
70434;BME280;57876;47.792;12.960;2023-07-31T04:15:16;96880.00;;;18.70;63.69
70434;BME280;57876;47.792;12.960;2023-07-31T04:17:40;96874.06;;;18.68;63.80
70434;BME280;57876;47.792;12.960;2023-07-31T04:20:05;96875.66;;;18.69;63.60
70434;BME280;57876;47.792;12.960;2023-07-31T04:22:30;96882.75;;;18.70;63.63
70434;BME280;57876;47.792;12.960;2023-07-31T04:24:54;96876.00;;;18.68;63.71
70434;BME280;57876;47.792;12.960;2023-07-31T04:27:18;96878.88;;;18.71;63.68
70434;BME280;57876;47.792;12.960;2023-07-31T04:29:43;96882.75;;;18.70;63.59
70434;BME280;57876;47.792;12.960;2023-07-31T04:32:10;96879.22;;;18.70;63.57
70434;BME280;57876;47.792;12.960;2023-07-31T04:34:34;96878.75;;;18.68;63.62
70434;BME280;57876;47.792;12.960;2023-07-31T04:36:58;96882.75;;;18.70;63.51
70434;BME280;57876;47.792;12.960;2023-07-31T04:39:23;96885.03;;;18.68;63.43
70434;BME280;57876;47.792;12.960;2023-07-31T04:41:47;96886.63;;;18.69;63.78
70434;BME280;57876;47.792;12.960;2023-07-31T04:44:11;96882.75;;;18.70;63.60
70434;BME280;57876;47.792;12.960;2023-07-31T04:46:36;96877.28;;;18.70;63.90
70434;BME280;57876;47.792;12.960;2023-07-31T04:49:01;96881.13;;;18.69;63.43
70434;BME280;57876;47.792;12.960;2023-07-31T04:51:25;96867.44;;;18.69;63.82
70434;BME280;57876;47.792;12.960;2023-07-31T04:53:50;96868.59;;;18.68;63.62
70434;BME280;57876;47.792;12.960;2023-07-31T04:56:15;96864.69;;;18.69;63.60
70434;BME280;57876;47.792;12.960;2023-07-31T04:58:40;96864.69;;;18.69;63.76
70434;BME280;57876;47.792;12.960;2023-07-31T05:01:04;96863.56;;;18.70;63.50
70434;BME280;57876;47.792;12.960;2023-07-31T05:03:28;96859.22;;;18.69;63.97
70434;BME280;57876;47.792;12.960;2023-07-31T05:05:53;96860.84;;;18.70;63.64
70434;BME280;57876;47.792;12.960;2023-07-31T05:08:17;96870.66;;;18.71;63.54
70434;BME280;57876;47.792;12.960;2023-07-31T05:10:41;96865.16;;;18.71;63.65
70434;BME280;57876;47.792;12.960;2023-07-31T05:13:06;96870.16;;;18.69;63.58
70434;BME280;57876;47.792;12.960;2023-07-31T05:15:30;96869.06;;;18.70;63.74
70434;BME280;57876;47.792;12.960;2023-07-31T05:17:55;96874.19;;;18.72;63.66
70434;BME280;57876;47.792;12.960;2023-07-31T05:20:20;96871.78;;;18.70;63.58
70434;BME280;57876;47.792;12.960;2023-07-31T05:22:44;96875.00;;;18.73;63.36
70434;BME280;57876;47.792;12.960;2023-07-31T05:25:09;96875.00;;;18.73;63.40
70434;BME280;57876;47.792;12.960;2023-07-31T05:27:34;96869.06;;;18.70;63.59
70434;BME280;57876;47.792;12.960;2023-07-31T05:29:59;96875.81;;;18.73;63.36
70434;BME280;57876;47.792;12.960;2023-07-31T05:32:23;96865.16;;;18.71;63.50
70434;BME280;57876;47.792;12.960;2023-07-31T05:34:51;96866.31;;;18.70;63.58
70434;BME280;57876;47.792;12.960;2023-07-31T05:37:16;96858.56;;;18.73;63.37
70434;BME280;57876;47.792;12.960;2023-07-31T05:39:40;96865.97;;;18.72;63.46
70434;BME280;57876;47.792;12.960;2023-07-31T05:42:05;96865.63;;;18.74;63.54
70434;BME280;57876;47.792;12.960;2023-07-31T05:44:29;96865.63;;;18.74;63.44
70434;BME280;57876;47.792;12.960;2023-07-31T05:46:54;96859.38;;;18.73;63.32
70434;BME280;57876;47.792;12.960;2023-07-31T05:49:18;96864.84;;;18.73;63.30
70434;BME280;57876;47.792;12.960;2023-07-31T05:51:43;96860.16;;;18.74;63.31
70434;BME280;57876;47.792;12.960;2023-07-31T05:54:07;96862.91;;;18.74;63.45
70434;BME280;57876;47.792;12.960;2023-07-31T05:56:32;96860.84;;;18.70;63.41
70434;BME280;57876;47.792;12.960;2023-07-31T05:58:58;96851.94;;;18.74;63.43
70434;BME280;57876;47.792;12.960;2023-07-31T06:01:22;96851.47;;;18.71;63.44
70434;BME280;57876;47.792;12.960;2023-07-31T06:03:49;96854.69;;;18.74;63.49
70434;BME280;57876;47.792;12.960;2023-07-31T06:06:14;96843.72;;;18.74;63.40
70434;BME280;57876;47.792;12.960;2023-07-31T06:08:38;96849.19;;;18.74;63.36
70434;BME280;57876;47.792;12.960;2023-07-31T06:11:07;96850.81;;;18.75;63.36
70434;BME280;57876;47.792;12.960;2023-07-31T06:13:33;96845.81;;;18.77;63.00
70434;BME280;57876;47.792;12.960;2023-07-31T06:15:57;96849.50;;;18.81;63.26
70434;BME280;57876;47.792;12.960;2023-07-31T06:18:23;96848.63;;;18.89;63.21
70434;BME280;57876;47.792;12.960;2023-07-31T06:20:48;96835.81;;;18.93;63.28
70434;BME280;57876;47.792;12.960;2023-07-31T06:23:17;96833.06;;;18.93;63.32
70434;BME280;57876;47.792;12.960;2023-07-31T06:25:43;96829.44;;;18.89;63.31
70434;BME280;57876;47.792;12.960;2023-07-31T06:28:07;96831.81;;;18.90;63.44
70434;BME280;57876;47.792;12.960;2023-07-31T06:30:32;96834.91;;;18.89;63.55
70434;BME280;57876;47.792;12.960;2023-07-31T06:32:57;96828.63;;;18.88;63.53
70434;BME280;57876;47.792;12.960;2023-07-31T06:35:23;96827.81;;;18.88;63.53
70434;BME280;57876;47.792;12.960;2023-07-31T06:37:47;96830.91;;;18.86;63.42
70434;BME280;57876;47.792;12.960;2023-07-31T06:40:12;96834.44;;;18.87;63.56
70434;BME280;57876;47.792;12.960;2023-07-31T06:42:36;96836.72;;;18.85;63.65
70434;BME280;57876;47.792;12.960;2023-07-31T06:45:02;96831.22;;;18.85;63.26
70434;BME280;57876;47.792;12.960;2023-07-31T06:47:26;96832.38;;;18.84;63.59
70434;BME280;57876;47.792;12.960;2023-07-31T06:49:51;96832.38;;;18.84;63.72
70434;BME280;57876;47.792;12.960;2023-07-31T06:52:15;96818.22;;;18.82;64.20
70434;BME280;57876;47.792;12.960;2023-07-31T06:54:39;96817.06;;;18.83;63.45
70434;BME280;57876;47.792;12.960;2023-07-31T06:57:04;96828.00;;;18.83;63.59
70434;BME280;57876;47.792;12.960;2023-07-31T06:59:28;96832.25;;;18.80;63.61
70434;BME280;57876;47.792;12.960;2023-07-31T07:01:53;96837.38;;;18.82;63.81
70434;BME280;57876;47.792;12.960;2023-07-31T07:04:17;96829.97;;;18.82;63.59
70434;BME280;57876;47.792;12.960;2023-07-31T07:06:42;96827.22;;;18.82;63.72
70434;BME280;57876;47.792;12.960;2023-07-31T07:09:06;96827.56;;;18.81;63.80
70434;BME280;57876;47.792;12.960;2023-07-31T07:11:31;96818.22;;;18.82;63.80
70434;BME280;57876;47.792;12.960;2023-07-31T07:13:55;96815.81;;;18.80;63.56
70434;BME280;57876;47.792;12.960;2023-07-31T07:16:20;96820.47;;;18.80;63.71
70434;BME280;57876;47.792;12.960;2023-07-31T07:18:45;96815.47;;;18.82;63.78
70434;BME280;57876;47.792;12.960;2023-07-31T07:21:09;96828.00;;;18.83;63.73
70434;BME280;57876;47.792;12.960;2023-07-31T07:23:33;96822.09;;;18.81;63.72
70434;BME280;57876;47.792;12.960;2023-07-31T07:25:58;96822.09;;;18.81;63.56
70434;BME280;57876;47.792;12.960;2023-07-31T07:28:22;96812.72;;;18.82;63.64
70434;BME280;57876;47.792;12.960;2023-07-31T07:30:56;96805.31;;;18.82;63.75
70434;BME280;57876;47.792;12.960;2023-07-31T07:33:20;96813.53;;;18.82;63.61
70434;BME280;57876;47.792;12.960;2023-07-31T07:35:50;96806.44;;;18.81;63.63
70434;BME280;57876;47.792;12.960;2023-07-31T07:38:15;96804.97;;;18.84;63.64
70434;BME280;57876;47.792;12.960;2023-07-31T07:40:40;96804.97;;;18.84;63.57
70434;BME280;57876;47.792;12.960;2023-07-31T07:43:07;96798.69;;;18.83;63.59
70434;BME280;57876;47.792;12.960;2023-07-31T07:45:32;96803.34;;;18.83;63.65
70434;BME280;57876;47.792;12.960;2023-07-31T07:47:56;96803.34;;;18.83;63.64
70434;BME280;57876;47.792;12.960;2023-07-31T07:50:23;96800.63;;;18.83;63.80
70434;BME280;57876;47.792;12.960;2023-07-31T07:52:50;96804.50;;;18.82;63.55
70434;BME280;57876;47.792;12.960;2023-07-31T07:55:14;96802.13;;;18.80;63.67
70434;BME280;57876;47.792;12.960;2023-07-31T07:57:39;96794.34;;;18.82;63.41
70434;BME280;57876;47.792;12.960;2023-07-31T08:00:04;96798.22;;;18.81;63.49
70434;BME280;57876;47.792;12.960;2023-07-31T08:02:29;96803.34;;;18.83;63.47
70434;BME280;57876;47.792;12.960;2023-07-31T08:04:53;96792.38;;;18.83;63.58
70434;BME280;57876;47.792;12.960;2023-07-31T08:07:17;96800.28;;;18.84;63.72
70434;BME280;57876;47.792;12.960;2023-07-31T08:09:42;96799.81;;;18.82;63.39
70434;BME280;57876;47.792;12.960;2023-07-31T08:12:07;96795.59;;;18.85;63.57
70434;BME280;57876;47.792;12.960;2023-07-31T08:14:31;96806.56;;;18.85;63.24
70434;BME280;57876;47.792;12.960;2023-07-31T08:16:56;96804.19;;;18.83;63.52
70434;BME280;57876;47.792;12.960;2023-07-31T08:19:23;96796.41;;;18.85;63.32
70434;BME280;57876;47.792;12.960;2023-07-31T08:21:50;96796.28;;;18.82;63.38
70434;BME280;57876;47.792;12.960;2023-07-31T08:24:17;96802.22;;;18.84;63.47
70434;BME280;57876;47.792;12.960;2023-07-31T08:26:42;96805.78;;;18.84;63.32
70434;BME280;57876;47.792;12.960;2023-07-31T08:29:06;96795.97;;;18.83;63.30
70434;BME280;57876;47.792;12.960;2023-07-31T08:31:31;96786.13;;;18.82;63.38
70434;BME280;57876;47.792;12.960;2023-07-31T08:33:56;96789.66;;;18.83;63.32
70434;BME280;57876;47.792;12.960;2023-07-31T08:36:20;96786.91;;;18.83;63.51
70434;BME280;57876;47.792;12.960;2023-07-31T08:38:45;96790.00;;;18.81;63.41
70434;BME280;57876;47.792;12.960;2023-07-31T08:41:20;96789.66;;;18.83;63.24
70434;BME280;57876;47.792;12.960;2023-07-31T08:43:51;96794.34;;;18.82;63.21
70434;BME280;57876;47.792;12.960;2023-07-31T08:46:16;96787.59;;;18.80;63.33
70434;BME280;57876;47.792;12.960;2023-07-31T08:48:42;96784.16;;;18.83;63.24
70434;BME280;57876;47.792;12.960;2023-07-31T08:51:06;96781.78;;;18.81;63.12
70434;BME280;57876;47.792;12.960;2023-07-31T08:53:37;96781.00;;;18.81;63.35
70434;BME280;57876;47.792;12.960;2023-07-31T08:56:04;96780.63;;;18.82;63.34
70434;BME280;57876;47.792;12.960;2023-07-31T08:58:31;96776.78;;;18.83;63.34
70434;BME280;57876;47.792;12.960;2023-07-31T09:00:56;96768.88;;;18.82;63.03
70434;BME280;57876;47.792;12.960;2023-07-31T09:03:23;96773.69;;;18.85;63.13
70434;BME280;57876;47.792;12.960;2023-07-31T09:05:51;96768.19;;;18.85;63.25
70434;BME280;57876;47.792;12.960;2023-07-31T09:08:39;96761.13;;;18.84;63.20
70434;BME280;57876;47.792;12.960;2023-07-31T09:11:13;96761.13;;;18.84;63.07
70434;BME280;57876;47.792;12.960;2023-07-31T09:13:39;96759.50;;;18.83;63.02
70434;BME280;57876;47.792;12.960;2023-07-31T09:16:04;96752.91;;;18.84;63.24
70434;BME280;57876;47.792;12.960;2023-07-31T09:18:31;96752.91;;;18.84;63.26
70434;BME280;57876;47.792;12.960;2023-07-31T09:21:05;96754.50;;;18.85;63.08
70434;BME280;57876;47.792;12.960;2023-07-31T09:23:46;96749.00;;;18.85;63.17
70434;BME280;57876;47.792;12.960;2023-07-31T09:26:33;96744.69;;;18.84;63.24
70434;BME280;57876;47.792;12.960;2023-07-31T09:28:59;96754.50;;;18.85;63.04
70434;BME280;57876;47.792;12.960;2023-07-31T09:31:56;96745.00;;;18.82;63.26
70434;BME280;57876;47.792;12.960;2023-07-31T09:34:29;96730.06;;;18.80;63.11
70434;BME280;57876;47.792;12.960;2023-07-31T09:37:00;96727.31;;;18.80;63.05
70434;BME280;57876;47.792;12.960;2023-07-31T09:39:25;96717.97;;;18.81;63.25
70434;BME280;57876;47.792;12.960;2023-07-31T09:41:54;96724.25;;;18.81;63.35
70434;BME280;57876;47.792;12.960;2023-07-31T09:44:20;96730.50;;;18.82;63.22
70434;BME280;57876;47.792;12.960;2023-07-31T09:46:44;96727.78;;;18.82;63.21
70434;BME280;57876;47.792;12.960;2023-07-31T09:49:12;96725.03;;;18.82;63.14
70434;BME280;57876;47.792;12.960;2023-07-31T09:51:37;96721.81;;;18.80;63.19
70434;BME280;57876;47.792;12.960;2023-07-31T09:54:09;96716.34;;;18.80;63.12
70434;BME280;57876;47.792;12.960;2023-07-31T09:56:34;96705.38;;;18.80;63.12
70434;BME280;57876;47.792;12.960;2023-07-31T09:59:01;96708.13;;;18.80;63.08
70434;BME280;57876;47.792;12.960;2023-07-31T10:01:27;96715.22;;;18.81;63.35
70434;BME280;57876;47.792;12.960;2023-07-31T10:03:51;96704.94;;;18.78;63.01
70434;BME280;57876;47.792;12.960;2023-07-31T10:06:16;96704.59;;;18.79;62.91
70434;BME280;57876;47.792;12.960;2023-07-31T10:08:45;96704.59;;;18.79;62.88
70434;BME280;57876;47.792;12.960;2023-07-31T10:11:12;96709.75;;;18.81;63.10
70434;BME280;57876;47.792;12.960;2023-07-31T10:13:38;96698.00;;;18.80;63.01
70434;BME280;57876;47.792;12.960;2023-07-31T10:16:04;96696.03;;;18.81;63.02
70434;BME280;57876;47.792;12.960;2023-07-31T10:18:29;96688.94;;;18.80;62.92
70434;BME280;57876;47.792;12.960;2023-07-31T10:20:58;96684.28;;;18.80;62.77
70434;BME280;57876;47.792;12.960;2023-07-31T10:23:24;96690.56;;;18.81;63.02
70434;BME280;57876;47.792;12.960;2023-07-31T10:25:53;96686.69;;;18.82;62.99
70434;BME280;57876;47.792;12.960;2023-07-31T10:28:18;96684.72;;;18.82;62.68
70434;BME280;57876;47.792;12.960;2023-07-31T10:30:44;96674.91;;;18.81;62.95
70434;BME280;57876;47.792;12.960;2023-07-31T10:33:09;96678.91;;;18.84;62.92
70434;BME280;57876;47.792;12.960;2023-07-31T10:35:33;96674.91;;;18.81;63.04
70434;BME280;57876;47.792;12.960;2023-07-31T10:38:09;96665.53;;;18.82;63.10
70434;BME280;57876;47.792;12.960;2023-07-31T10:40:35;96673.75;;;18.82;63.02
70434;BME280;57876;47.792;12.960;2023-07-31T10:43:00;96664.75;;;18.82;62.82
70434;BME280;57876;47.792;12.960;2023-07-31T10:45:33;96668.75;;;18.84;62.81
70434;BME280;57876;47.792;12.960;2023-07-31T10:48:02;96657.00;;;18.84;62.77
70434;BME280;57876;47.792;12.960;2023-07-31T10:50:30;96669.09;;;18.83;63.35
70434;BME280;57876;47.792;12.960;2023-07-31T10:52:57;96663.28;;;18.84;63.07
70434;BME280;57876;47.792;12.960;2023-07-31T10:55:31;96666.81;;;18.85;62.90
70434;BME280;57876;47.792;12.960;2023-07-31T10:58:04;96657.78;;;18.84;62.68
70434;BME280;57876;47.792;12.960;2023-07-31T11:00:30;96657.00;;;18.84;62.91
70434;BME280;57876;47.792;12.960;2023-07-31T11:02:59;96640.88;;;18.82;62.93
70434;BME280;57876;47.792;12.960;2023-07-31T11:05:43;96648.78;;;18.84;62.84
70434;BME280;57876;47.792;12.960;2023-07-31T11:08:18;96638.59;;;18.84;62.85
70434;BME280;57876;47.792;12.960;2023-07-31T11:10:44;96641.69;;;18.83;62.93
70434;BME280;57876;47.792;12.960;2023-07-31T11:13:09;96638.94;;;18.83;62.85
70434;BME280;57876;47.792;12.960;2023-07-31T11:15:36;96638.94;;;18.83;62.90
70434;BME280;57876;47.792;12.960;2023-07-31T11:18:01;96624.00;;;18.80;62.79
70434;BME280;57876;47.792;12.960;2023-07-31T11:20:37;96627.97;;;18.83;62.81
70434;BME280;57876;47.792;12.960;2023-07-31T11:23:03;96631.06;;;18.81;62.85
70434;BME280;57876;47.792;12.960;2023-07-31T11:25:29;96629.94;;;18.82;62.94
70434;BME280;57876;47.792;12.960;2023-07-31T11:27:54;96635.41;;;18.82;62.71
70434;BME280;57876;47.792;12.960;2023-07-31T11:30:20;96626.38;;;18.82;62.81
70434;BME280;57876;47.792;12.960;2023-07-31T11:32:44;96630.72;;;18.83;63.04
70434;BME280;57876;47.792;12.960;2023-07-31T11:35:12;96624.81;;;18.81;62.89
70434;BME280;57876;47.792;12.960;2023-07-31T11:37:43;96619.31;;;18.81;63.14
70434;BME280;57876;47.792;12.960;2023-07-31T11:40:08;96614.28;;;18.83;62.72
70434;BME280;57876;47.792;12.960;2023-07-31T11:42:34;96615.44;;;18.82;62.77
70434;BME280;57876;47.792;12.960;2023-07-31T11:45:02;96613.16;;;18.84;62.86
70434;BME280;57876;47.792;12.960;2023-07-31T11:47:26;96610.75;;;18.82;62.85
70434;BME280;57876;47.792;12.960;2023-07-31T11:49:51;96600.47;;;18.79;62.79
70434;BME280;57876;47.792;12.960;2023-07-31T11:52:15;96607.78;;;18.87;62.64
70434;BME280;57876;47.792;12.960;2023-07-31T11:54:41;96606.28;;;18.90;62.70
70434;BME280;57876;47.792;12.960;2023-07-31T11:57:05;96606.97;;;18.87;63.13
70434;BME280;57876;47.792;12.960;2023-07-31T11:59:30;96602.66;;;18.86;63.07
70434;BME280;57876;47.792;12.960;2023-07-31T12:01:55;96603.44;;;18.86;62.90
70434;BME280;57876;47.792;12.960;2023-07-31T12:04:20;96596.72;;;18.84;62.94
70434;BME280;57876;47.792;12.960;2023-07-31T12:06:45;96589.63;;;18.83;62.99
70434;BME280;57876;47.792;12.960;2023-07-31T12:09:10;96596.72;;;18.84;62.89
70434;BME280;57876;47.792;12.960;2023-07-31T12:11:47;96592.81;;;18.85;62.75
70434;BME280;57876;47.792;12.960;2023-07-31T12:14:26;96589.63;;;18.83;62.89
70434;BME280;57876;47.792;12.960;2023-07-31T12:16:54;96578.66;;;18.83;62.89
70434;BME280;57876;47.792;12.960;2023-07-31T12:19:19;96563.84;;;18.84;62.81
70434;BME280;57876;47.792;12.960;2023-07-31T12:21:43;96556.72;;;18.83;62.83
70434;BME280;57876;47.792;12.960;2023-07-31T12:24:11;96572.06;;;18.84;62.77
70434;BME280;57876;47.792;12.960;2023-07-31T12:26:35;96562.22;;;18.83;62.95
70434;BME280;57876;47.792;12.960;2023-07-31T12:32:19;96553.91;;;18.79;62.85
70434;BME280;57876;47.792;12.960;2023-07-31T12:34:46;96548.09;;;18.81;62.92
70434;BME280;57876;47.792;12.960;2023-07-31T12:37:11;96536.75;;;18.82;63.11
70434;BME280;57876;47.792;12.960;2023-07-31T12:39:36;96534.81;;;18.83;62.85
70434;BME280;57876;47.792;12.960;2023-07-31T12:42:00;96532.44;;;18.81;62.84
70434;BME280;57876;47.792;12.960;2023-07-31T12:44:25;96523.41;;;18.81;62.87
70434;BME280;57876;47.792;12.960;2023-07-31T12:46:49;96520.69;;;18.81;62.78
70434;BME280;57876;47.792;12.960;2023-07-31T12:49:14;96509.72;;;18.81;63.06
70434;BME280;57876;47.792;12.960;2023-07-31T12:51:38;96504.25;;;18.81;62.53
70434;BME280;57876;47.792;12.960;2023-07-31T12:54:02;96505.03;;;18.81;62.93
70434;BME280;57876;47.792;12.960;2023-07-31T12:56:27;96499.88;;;18.80;62.96
70434;BME280;57876;47.792;12.960;2023-07-31T12:58:51;96493.63;;;18.79;62.79
70434;BME280;57876;47.792;12.960;2023-07-31T13:01:16;96492.50;;;18.80;62.89
70434;BME280;57876;47.792;12.960;2023-07-31T13:03:40;96484.59;;;18.79;62.87
70434;BME280;57876;47.792;12.960;2023-07-31T13:06:04;96482.31;;;18.81;62.68
70434;BME280;57876;47.792;12.960;2023-07-31T13:08:29;96483.66;;;18.99;62.74